createdAt,value
2023-01-28T00:01:13.122Z,-0.28
2023-01-28T00:03:41.686Z,-0.32
2023-01-28T00:06:15.243Z,-0.32
2023-01-28T00:08:43.485Z,-0.29
2023-01-28T04:03:37.223Z,-3.22
2023-01-28T04:06:09.241Z,-2.51
2023-01-28T04:09:05.970Z,-2.22
2023-01-28T04:11:51.801Z,-2.00
2023-01-28T04:14:25.867Z,-1.80
2023-01-28T04:17:06.917Z,-1.63
2023-01-28T04:19:36.810Z,-1.51
2023-01-28T04:22:06.262Z,-1.45
2023-01-28T04:24:36.317Z,-1.41
2023-01-28T04:27:03.369Z,-1.32
2023-01-28T04:29:31.175Z,-1.19
2023-01-28T04:32:07.835Z,-1.15
2023-01-28T04:35:14.865Z,-1.13
2023-01-28T04:38:07.927Z,-1.16
2023-01-28T04:41:07.291Z,-1.11
2023-01-28T04:43:36.057Z,-1.05
2023-01-28T04:46:21.612Z,-1.00
2023-01-28T04:49:08.731Z,-0.98
2023-01-28T04:51:56.079Z,-0.97
2023-01-28T04:54:35.693Z,-0.89
2023-01-28T04:57:04.028Z,-0.80
2023-01-28T04:59:31.542Z,-0.76
2023-01-28T05:01:58.846Z,-0.76
2023-01-28T05:04:26.252Z,-0.76
2023-01-28T05:06:53.534Z,-0.76
2023-01-28T05:09:25.088Z,-0.73
2023-01-28T05:11:52.192Z,-0.69
2023-01-28T05:14:19.877Z,-0.70
2023-01-28T05:16:53.973Z,-0.72
2023-01-28T05:19:20.819Z,-0.79
2023-01-28T05:21:47.690Z,-0.81
2023-01-28T05:24:35.153Z,-0.80
2023-01-28T05:27:03.497Z,-0.74
2023-01-28T05:29:30.904Z,-0.72
2023-01-28T05:31:59.325Z,-0.69
2023-01-28T05:34:26.895Z,-0.70
2023-01-28T05:36:55.792Z,-0.68
2023-01-28T05:39:40.763Z,-0.61
2023-01-28T05:42:08.828Z,-0.58
2023-01-28T05:44:41.245Z,-0.58
2023-01-28T05:47:16.462Z,-0.59
2023-01-28T05:49:46.421Z,-0.55
2023-01-28T05:52:37.991Z,-0.56
2023-01-28T05:55:09.138Z,-0.50
2023-01-28T05:57:36.778Z,-0.46
2023-01-28T06:00:05.465Z,-0.45
2023-01-28T06:02:42.987Z,-0.46
2023-01-28T06:05:13.384Z,-0.43
2023-01-28T06:07:44.847Z,-0.37
2023-01-28T06:10:13.319Z,-0.35
2023-01-28T06:12:42.027Z,-0.38
2023-01-28T06:15:30.742Z,-0.41
2023-01-28T06:18:18.665Z,-0.46
2023-01-28T06:20:49.637Z,-0.48
2023-01-28T06:23:16.933Z,-0.41
2023-01-28T06:25:45.173Z,-0.36
2023-01-28T06:28:17.886Z,-0.39
2023-01-28T06:30:49.181Z,-0.39
2023-01-28T06:33:17.003Z,-0.36
2023-01-28T06:35:44.822Z,-0.30
2023-01-28T06:38:12.409Z,-0.26
2023-01-28T06:40:40.046Z,-0.23
2023-01-28T06:43:07.792Z,-0.23
2023-01-28T06:45:36.498Z,-0.29
2023-01-28T06:48:06.647Z,-0.33
2023-01-28T06:50:37.159Z,-0.32
2023-01-28T06:53:04.201Z,-0.29
2023-01-28T06:55:31.457Z,-0.35
2023-01-28T06:57:58.289Z,-0.36
2023-01-28T07:00:26.069Z,-0.35
2023-01-28T07:02:56.686Z,-0.34
2023-01-28T07:05:24.689Z,-0.29
2023-01-28T07:07:53.139Z,-0.20
2023-01-28T07:10:21.046Z,-0.14
2023-01-28T07:12:49.162Z,-0.15
2023-01-28T07:15:17.197Z,-0.18
2023-01-28T07:17:44.606Z,-0.21
2023-01-28T07:20:14.904Z,-0.20
2023-01-28T07:22:42.489Z,-0.14
2023-01-28T07:25:10.132Z,-0.15
2023-01-28T07:27:37.545Z,-0.12
2023-01-28T07:30:05.207Z,-0.08
2023-01-28T07:32:33.711Z,-0.11
2023-01-28T07:35:00.449Z,-0.09
2023-01-28T07:37:28.383Z,-0.01
2023-01-28T07:39:56.457Z,0.00
2023-01-28T07:42:24.865Z,-0.04
2023-01-28T07:44:54.241Z,-0.04
2023-01-28T07:47:22.350Z,-0.07
2023-01-28T07:49:49.458Z,-0.04
2023-01-28T12:27:33.307Z,-1.91
2023-01-28T12:30:19.991Z,-0.98
2023-01-28T12:33:22.869Z,-0.63
2023-01-28T12:36:07.553Z,-0.30
2023-01-28T12:38:58.201Z,0.03
2023-01-28T12:41:29.858Z,0.26
2023-01-28T12:44:04.157Z,0.43
2023-01-28T12:47:04.173Z,0.60
2023-01-28T12:49:40.414Z,0.83
2023-01-28T12:52:50.297Z,1.04
2023-01-28T12:55:20.059Z,1.22
2023-01-28T12:57:49.105Z,1.32
2023-01-28T13:00:34.181Z,1.40
2023-01-28T13:03:02.800Z,1.45
2023-01-28T13:05:37.652Z,1.46
2023-01-28T13:08:26.447Z,1.49
2023-01-28T13:10:56.480Z,1.49
2023-01-28T13:13:33.964Z,1.48
2023-01-28T13:16:03.966Z,1.45
2023-01-28T13:18:32.921Z,1.46
2023-01-28T13:21:02.780Z,1.52
2023-01-28T13:23:31.110Z,1.56
2023-01-28T13:26:25.961Z,1.68
2023-01-28T13:28:54.846Z,1.76
2023-01-28T13:31:24.272Z,1.79
2023-01-28T13:33:55.766Z,1.79
2023-01-28T13:36:40.582Z,1.77
2023-01-28T13:39:18.523Z,1.62
2023-01-28T13:41:51.813Z,1.54
2023-01-28T13:44:26.168Z,1.49
2023-01-28T13:47:27.126Z,1.40
2023-01-28T13:49:59.582Z,1.32
2023-01-28T13:52:50.302Z,1.29
2023-01-28T13:55:37.477Z,1.25
2023-01-28T13:58:13.566Z,1.18
2023-01-28T14:00:46.475Z,1.15
2023-01-28T14:03:39.643Z,1.14
2023-01-28T14:06:23.377Z,1.09
2023-01-28T14:08:58.208Z,1.05
2023-01-28T14:11:33.165Z,0.99
2023-01-28T14:14:23.704Z,0.88
2023-01-28T14:16:58.272Z,0.79
2023-01-28T14:19:31.876Z,0.76
2023-01-28T14:22:00.157Z,0.75
2023-01-28T14:24:29.869Z,0.70
2023-01-28T14:27:07.132Z,0.65
2023-01-28T14:29:44.650Z,0.61
2023-01-28T14:32:33.177Z,0.55
2023-01-28T14:35:07.246Z,0.40
2023-01-28T14:38:00.735Z,0.27
2023-01-28T14:40:30.484Z,0.23
2023-01-28T14:42:58.859Z,0.25
2023-01-28T14:45:49.663Z,0.19
2023-01-28T14:48:33.352Z,0.11
2023-01-28T14:51:14.584Z,0.06
2023-01-28T14:54:30.326Z,0.01
2023-01-28T14:57:11.227Z,-0.08
2023-01-28T14:59:46.504Z,-0.08
2023-01-28T15:02:23.019Z,-0.05
2023-01-28T15:04:51.702Z,-0.07
2023-01-28T15:07:20.136Z,-0.11
2023-01-28T15:10:21.336Z,-0.14
2023-01-28T15:12:52.996Z,-0.22
2023-01-28T15:15:38.169Z,-0.29
2023-01-28T15:18:22.043Z,-0.32
2023-01-28T15:20:52.294Z,-0.30
2023-01-28T15:23:38.772Z,-0.34
2023-01-28T15:26:18.724Z,-0.42
2023-01-28T15:28:47.641Z,-0.47
2023-01-28T15:31:26.426Z,-0.49
2023-01-28T15:34:03.772Z,-0.54
2023-01-28T15:36:32.399Z,-0.55
2023-01-28T15:39:00.819Z,-0.54
2023-01-28T15:41:35.786Z,-0.55
2023-01-28T15:44:04.121Z,-0.61
2023-01-28T15:46:32.347Z,-0.67
2023-01-28T15:49:04.202Z,-0.73
2023-01-28T15:51:34.127Z,-0.79
2023-01-28T15:54:09.675Z,-0.82
2023-01-28T15:56:38.098Z,-0.78
2023-01-28T20:57:48.736Z,-3.10
2023-01-28T21:00:17.969Z,-2.37
2023-01-28T21:02:46.747Z,-2.02
2023-01-28T21:05:15.059Z,-1.78
2023-01-28T21:07:44.251Z,-1.59
2023-01-28T21:10:12.764Z,-1.44
2023-01-28T21:12:41.143Z,-1.35
2023-01-28T21:15:09.806Z,-1.30
2023-01-28T21:17:38.519Z,-1.21
2023-01-28T21:20:07.535Z,-1.10
2023-01-28T21:22:35.945Z,-1.06
2023-01-28T21:25:05.513Z,-1.07
2023-01-28T21:27:35.909Z,-1.08
2023-01-28T21:30:04.477Z,-1.12
2023-01-28T21:32:33.150Z,-1.13
2023-01-28T21:35:02.127Z,-1.11
2023-01-28T21:37:31.071Z,-1.13
2023-01-28T21:39:59.430Z,-1.18
2023-01-28T21:42:28.885Z,-1.24
2023-01-28T21:44:57.084Z,-1.29
2023-01-28T21:47:25.388Z,-1.33
2023-01-28T21:49:53.825Z,-1.32
2023-01-28T21:52:22.795Z,-1.31
2023-01-28T21:54:51.401Z,-1.36
2023-01-28T21:57:23.418Z,-1.41
2023-01-28T21:59:51.930Z,-1.49
2023-01-28T22:02:23.764Z,-1.51
2023-01-28T22:04:53.536Z,-1.48
2023-01-28T22:07:22.128Z,-1.48
2023-01-28T22:09:53.923Z,-1.55
2023-01-28T22:12:27.737Z,-1.58
2023-01-28T22:14:56.890Z,-1.62
2023-01-28T22:17:25.905Z,-1.62
2023-01-28T22:19:54.806Z,-1.57
2023-01-28T22:22:23.409Z,-1.56
2023-01-28T22:24:51.871Z,-1.58
2023-01-28T22:27:20.143Z,-1.61
2023-01-28T22:29:48.427Z,-1.64
2023-01-28T22:32:16.675Z,-1.64
2023-01-28T22:34:46.970Z,-1.56
2023-01-28T22:37:15.759Z,-1.56
2023-01-28T22:39:44.098Z,-1.58
2023-01-28T22:42:14.965Z,-1.62
2023-01-28T22:44:43.297Z,-1.67
2023-01-28T22:47:11.622Z,-1.64
2023-01-28T22:49:40.103Z,-1.56
2023-01-28T22:52:08.615Z,-1.56
2023-01-28T22:54:37.431Z,-1.55
2023-01-28T22:57:05.646Z,-1.59
2023-01-28T22:59:34.346Z,-1.65
2023-01-28T23:02:02.866Z,-1.65
2023-01-28T23:04:31.237Z,-1.60
2023-01-28T23:07:01.087Z,-1.58
2023-01-28T23:09:29.639Z,-1.62
2023-01-28T23:11:57.942Z,-1.67
2023-01-28T23:14:45.419Z,-1.73
2023-01-28T23:17:32.876Z,-1.75
2023-01-28T23:20:33.230Z,-1.71
2023-01-28T23:23:20.921Z,-1.75
2023-01-28T23:25:49.348Z,-1.78
2023-01-28T23:28:17.681Z,-1.86
2023-01-28T23:30:46.663Z,-1.94
2023-01-28T23:33:14.951Z,-1.96
2023-01-28T23:35:43.695Z,-1.92
2023-01-28T23:38:12.332Z,-1.92
2023-01-28T23:40:40.604Z,-1.96
2023-01-28T23:43:09.092Z,-2.02
2023-01-28T23:45:39.395Z,-2.10
2023-01-28T23:48:07.590Z,-2.13
2023-01-28T23:50:36.179Z,-2.13
2023-01-28T23:53:13.229Z,-2.15
2023-01-28T23:55:41.546Z,-2.17
2023-01-28T23:58:09.691Z,-2.20
